Time;durP1;ratioP1;P1;durP2;ratioP2;P2;SDS_P1;SDS_P2;PMS_P1;PMS_P2;Temp;Humidity;BMP_temperature;BMP_pressure;BME280_temperature;BME280_humidity;BME280_pressure;Samples;Min_cycle;Max_cycle;Signal;HPM_P1;HPM_P2
2022/08/18 00:00:34;;;;;;;7.77;5.50;;;22.20;65.80;;;;;;5061205;28;20215;-58
2022/08/18 00:03:06;;;;;;;5.87;5.27;;;22.20;65.80;;;;;;5076723;28;20185;-58
2022/08/18 00:05:32;;;;;;;8.43;5.37;;;22.20;65.80;;;;;;5092349;28;20181;-58
2022/08/18 00:07:57;;;;;;;6.90;5.40;;;22.20;66.00;;;;;;5089630;28;20184;-59
2022/08/18 00:10:24;;;;;;;6.03;5.43;;;22.20;66.20;;;;;;5081983;28;20241;-58
2022/08/18 00:12:50;;;;;;;8.33;5.37;;;22.30;66.00;;;;;;5084267;28;20184;-58
2022/08/18 00:15:16;;;;;;;7.17;5.83;;;22.30;65.80;;;;;;5078081;28;20238;-58
2022/08/18 00:17:42;;;;;;;6.80;5.53;;;22.30;65.70;;;;;;5078413;28;20238;-58
2022/08/18 00:20:12;;;;;;;6.80;5.40;;;22.30;66.00;;;;;;5078830;28;20216;-58
2022/08/18 00:22:41;;;;;;;6.10;5.60;;;22.20;66.20;;;;;;5098660;28;20184;-58
2022/08/18 00:25:09;;;;;;;5.70;5.20;;;22.20;66.30;;;;;;5067112;28;20241;-58
2022/08/18 00:27:36;;;;;;;8.87;6.00;;;22.10;66.60;;;;;;5065376;28;20250;-59
2022/08/18 00:30:05;;;;;;;6.57;5.77;;;22.10;66.70;;;;;;5096645;28;20264;-58
2022/08/18 00:32:36;;;;;;;6.30;5.70;;;22.10;66.50;;;;;;5097598;28;20191;-58
2022/08/18 00:35:11;;;;;;;7.47;5.50;;;22.10;66.60;;;;;;5090491;28;20188;-58
2022/08/18 00:37:37;;;;;;;6.30;5.70;;;22.00;66.60;;;;;;5115187;28;20236;-58
2022/08/18 00:40:03;;;;;;;8.30;5.60;;;22.00;66.60;;;;;;5062961;28;20213;-58
2022/08/18 00:42:30;;;;;;;6.20;5.63;;;22.10;66.70;;;;;;5108337;28;20184;-58
2022/08/18 00:45:01;;;;;;;6.33;5.73;;;22.10;66.70;;;;;;5060931;28;20189;-58
2022/08/18 00:47:28;;;;;;;8.33;5.93;;;22.00;66.50;;;;;;5071719;28;20192;-58
2022/08/18 00:49:54;;;;;;;7.77;5.43;;;22.00;66.70;;;;;;5073341;28;20216;-58
2022/08/18 00:52:22;;;;;;;6.20;5.60;;;22.00;66.80;;;;;;5077410;28;20214;-58
2022/08/18 00:54:49;;;;;;;6.40;5.47;;;22.00;66.70;;;;;;5115965;28;20237;-58
2022/08/18 00:57:20;;;;;;;8.07;5.73;;;22.00;66.70;;;;;;5097171;28;20196;-58
2022/08/18 01:00:02;;;;;;;7.37;6.27;;;22.00;66.90;;;;;;5077418;28;20212;-58
2022/08/18 01:02:33;;;;;;;5.87;5.33;;;21.90;67.10;;;;;;5111109;28;20188;-58
2022/08/18 01:05:29;;;;;;;7.70;5.43;;;21.90;67.00;;;;;;5088508;28;20279;-58
2022/08/18 01:07:55;;;;;;;5.87;5.33;;;21.90;67.00;;;;;;5108772;27;20200;-58
2022/08/18 01:10:22;;;;;;;7.47;5.97;;;21.90;66.90;;;;;;5087591;28;20245;-58
2022/08/18 01:12:57;;;;;;;7.00;5.83;;;21.90;67.10;;;;;;5068593;28;20188;-58
2022/08/18 01:15:25;;;;;;;6.23;5.60;;;21.80;67.50;;;;;;5096601;28;20195;-58
2022/08/18 01:23:27;;;;;;;6.03;5.43;;;21.80;67.20;;;;;;5104301;28;20219;-58
2022/08/18 01:25:59;;;;;;;7.17;5.60;;;21.80;67.30;;;;;;5079985;28;20243;-58
2022/08/18 01:28:30;;;;;;;7.23;5.47;;;21.80;67.30;;;;;;5077575;28;20189;-58
2022/08/18 01:30:57;;;;;;;6.10;5.13;;;21.80;67.60;;;;;;5094491;28;20180;-58
2022/08/18 01:33:32;;;;;;;6.67;5.37;;;21.80;67.80;;;;;;5076928;28;20279;-58
2022/08/18 01:36:07;;;;;;;6.83;5.87;;;21.80;67.80;;;;;;5109604;28;20187;-58
2022/08/18 01:38:33;;;;;;;6.60;5.90;;;21.70;67.90;;;;;;5102383;28;20186;-58
2022/08/18 01:40:59;;;;;;;7.50;5.70;;;21.70;67.80;;;;;;5078310;28;20267;-58
2022/08/18 01:43:25;;;;;;;7.07;6.10;;;21.70;67.90;;;;;;5068222;28;20281;-58
2022/08/18 01:45:51;;;;;;;5.77;5.17;;;21.70;68.20;;;;;;5096788;28;20188;-58
2022/08/18 01:48:16;;;;;;;7.37;6.50;;;21.70;68.20;;;;;;5095566;28;20226;-58
2022/08/18 01:50:44;;;;;;;6.43;5.30;;;21.60;68.10;;;;;;5079617;28;20185;-58
2022/08/18 01:53:10;;;;;;;5.87;5.37;;;21.60;68.10;;;;;;5092894;28;20182;-58
2022/08/18 01:55:42;;;;;;;8.70;6.20;;;21.50;68.30;;;;;;5101436;28;20187;-59
2022/08/18 01:58:07;;;;;;;6.00;5.50;;;21.50;67.90;;;;;;5092369;28;20212;-58
2022/08/18 02:00:34;;;;;;;5.70;5.20;;;21.60;67.90;;;;;;5084194;28;20250;-58
2022/08/18 02:03:00;;;;;;;6.60;5.83;;;21.50;68.10;;;;;;5083439;28;20193;-58
2022/08/18 02:05:40;;;;;;;7.30;5.60;;;21.50;68.30;;;;;;5096394;28;20255;-58
2022/08/18 02:08:06;;;;;;;8.43;5.40;;;21.40;68.40;;;;;;5093300;28;20181;-58
2022/08/18 02:10:31;;;;;;;8.90;6.03;;;21.40;68.50;;;;;;5096215;28;20192;-58
2022/08/18 02:12:57;;;;;;;13.10;5.90;;;21.40;68.40;;;;;;5072683;28;20188;-58
2022/08/18 02:15:23;;;;;;;6.57;5.70;;;21.30;68.60;;;;;;5068803;28;20195;-58
2022/08/18 02:17:49;;;;;;;6.63;5.93;;;21.30;68.70;;;;;;5071143;28;20204;-58
2022/08/18 02:20:17;;;;;;;6.20;5.50;;;21.30;68.60;;;;;;5093535;28;20235;-58
2022/08/18 02:22:45;;;;;;;6.47;5.70;;;21.30;68.80;;;;;;5089069;28;20177;-58
2022/08/18 02:25:11;;;;;;;6.03;5.37;;;21.30;68.90;;;;;;5089990;28;20238;-58
2022/08/18 02:27:37;;;;;;;6.67;6.07;;;21.30;69.00;;;;;;5074386;28;20188;-58
2022/08/18 02:30:08;;;;;;;7.87;5.97;;;21.30;68.60;;;;;;5082803;28;20199;-58
2022/08/18 02:32:34;;;;;;;6.90;6.10;;;21.20;68.70;;;;;;5088205;28;20191;-58
2022/08/18 02:35:00;;;;;;;6.47;5.67;;;21.20;68.90;;;;;;5082353;28;20185;-58
2022/08/18 02:37:26;;;;;;;5.90;5.30;;;21.20;69.10;;;;;;5100569;28;20189;-58
2022/08/18 02:39:51;;;;;;;6.53;5.93;;;21.20;69.20;;;;;;5079239;28;20207;-58
2022/08/18 02:42:17;;;;;;;5.83;5.33;;;21.20;69.20;;;;;;5097606;28;20177;-58
2022/08/18 02:44:43;;;;;;;8.70;5.93;;;21.20;69.20;;;;;;5054940;28;20192;-58
2022/08/18 02:47:09;;;;;;;8.27;6.43;;;21.20;69.20;;;;;;5099273;28;20212;-58
2022/08/18 02:49:35;;;;;;;7.47;6.77;;;21.10;69.30;;;;;;5082789;28;20208;-58
2022/08/18 02:52:02;;;;;;;9.07;7.30;;;21.10;69.00;;;;;;5064457;28;20284;-58
2022/08/18 02:54:27;;;;;;;7.50;6.80;;;21.00;68.50;;;;;;5091475;28;20184;-58
2022/08/18 02:56:55;;;;;;;7.90;6.77;;;21.10;68.80;;;;;;5098618;28;20184;-58
2022/08/18 02:59:23;;;;;;;7.17;6.47;;;21.10;68.90;;;;;;5081542;28;20216;-58
2022/08/18 03:01:51;;;;;;;6.60;6.00;;;21.20;69.00;;;;;;5097056;28;20191;-58
2022/08/18 03:04:20;;;;;;;9.70;6.57;;;21.20;69.10;;;;;;5081431;28;20193;-58
2022/08/18 03:06:46;;;;;;;8.23;6.10;;;21.10;69.20;;;;;;5108265;28;20176;-58
2022/08/18 03:09:15;;;;;;;7.90;7.17;;;21.10;69.30;;;;;;5091677;28;20196;-58
2022/08/18 03:11:41;;;;;;;9.47;7.20;;;21.10;69.50;;;;;;5085616;28;20189;-58
2022/08/18 03:14:07;;;;;;;8.50;7.17;;;21.10;69.00;;;;;;5110626;28;20261;-58
2022/08/18 03:16:34;;;;;;;7.13;6.33;;;21.10;68.80;;;;;;5079828;28;20249;-58
2022/08/18 03:19:00;;;;;;;8.17;6.00;;;21.10;68.70;;;;;;5078983;28;20209;-58
2022/08/18 03:21:30;;;;;;;7.27;6.47;;;21.10;69.00;;;;;;5099442;28;20184;-58
2022/08/18 03:23:57;;;;;;;7.20;6.33;;;21.00;69.00;;;;;;5092178;28;20318;-58
2022/08/18 03:26:24;;;;;;;7.50;6.80;;;21.00;68.90;;;;;;5106830;28;20232;-58
2022/08/18 03:28:52;;;;;;;8.00;6.90;;;21.00;69.00;;;;;;5099028;28;20183;-58
2022/08/18 03:31:20;;;;;;;7.90;7.17;;;20.90;69.20;;;;;;5082543;28;20196;-58
2022/08/18 03:33:46;;;;;;;7.77;6.97;;;20.90;69.50;;;;;;5090353;28;20200;-58
2022/08/18 03:36:17;;;;;;;8.90;7.43;;;20.90;69.50;;;;;;5079171;28;20271;-60
2022/08/18 03:38:44;;;;;;;7.83;7.10;;;20.80;69.60;;;;;;5096708;28;20176;-60
2022/08/18 03:41:13;;;;;;;8.83;7.57;;;20.80;70.00;;;;;;5095981;28;20207;-61
2022/08/18 03:43:39;;;;;;;8.53;7.07;;;20.80;70.00;;;;;;5086190;28;20294;-60
2022/08/18 03:46:10;;;;;;;7.43;6.47;;;20.70;70.20;;;;;;5089542;28;20268;-60
2022/08/18 03:48:39;;;;;;;8.93;7.17;;;20.70;70.30;;;;;;5095085;28;20184;-60
2022/08/18 03:51:08;;;;;;;7.60;6.90;;;20.70;70.60;;;;;;5116675;28;20176;-60
2022/08/18 03:53:35;;;;;;;9.97;7.70;;;20.60;70.90;;;;;;5109712;28;20183;-61
2022/08/18 03:56:05;;;;;;;8.53;7.63;;;20.50;71.10;;;;;;5092018;28;20189;-60
2022/08/18 03:58:30;;;;;;;7.90;7.07;;;20.60;70.90;;;;;;5116979;28;20175;-60
2022/08/18 04:00:56;;;;;;;8.47;7.20;;;20.50;71.00;;;;;;5064953;28;20207;-60
2022/08/18 04:03:22;;;;;;;8.67;7.87;;;20.40;71.10;;;;;;5060305;28;20181;-60
2022/08/18 04:05:47;;;;;;;7.90;7.13;;;20.40;71.20;;;;;;5051946;28;20185;-60
2022/08/18 04:08:13;;;;;;;9.53;7.33;;;20.40;71.40;;;;;;5054341;28;20182;-60
2022/08/18 04:10:38;;;;;;;9.23;7.77;;;20.30;71.60;;;;;;5076831;28;20686;-60
2022/08/18 04:13:04;;;;;;;8.77;7.83;;;20.30;71.80;;;;;;5096805;28;20253;-60
2022/08/18 04:15:31;;;;;;;8.30;7.47;;;20.30;71.40;;;;;;5073993;28;20222;-60
2022/08/18 04:18:03;;;;;;;7.67;6.97;;;20.30;71.60;;;;;;5093196;28;20188;-60
2022/08/18 04:20:31;;;;;;;9.70;7.43;;;20.30;71.70;;;;;;5096987;28;20283;-60
2022/08/18 04:22:57;;;;;;;7.20;6.50;;;20.30;71.90;;;;;;5069351;28;20283;-60
2022/08/18 04:25:25;;;;;;;8.47;6.77;;;20.20;72.10;;;;;;5083978;28;20238;-60
2022/08/18 04:27:50;;;;;;;8.60;7.87;;;20.20;72.20;;;;;;5055407;28;20181;-60
2022/08/18 04:30:17;;;;;;;7.60;6.87;;;20.20;72.30;;;;;;5097339;28;20184;-60
2022/08/18 04:32:42;;;;;;;8.57;7.53;;;20.20;72.40;;;;;;5067835;28;20192;-60
2022/08/18 04:35:08;;;;;;;8.60;7.40;;;20.20;72.40;;;;;;5073255;28;20180;-60
2022/08/18 04:37:37;;;;;;;8.00;7.23;;;20.20;72.50;;;;;;5075088;28;20190;-60
2022/08/18 04:40:04;;;;;;;9.20;7.23;;;20.20;72.60;;;;;;5093649;28;20261;-60
2022/08/18 04:42:30;;;;;;;8.03;7.27;;;20.20;72.60;;;;;;5079825;28;20286;-60
2022/08/18 04:44:56;;;;;;;9.50;7.57;;;20.20;72.50;;;;;;5070328;28;20235;-60
2022/08/18 04:47:22;;;;;;;8.73;7.43;;;20.20;72.50;;;;;;5052882;28;20194;-60
2022/08/18 04:49:49;;;;;;;8.53;7.60;;;20.30;72.50;;;;;;5065017;28;20191;-59
2022/08/18 04:55:01;;;;;;;7.77;6.77;;;20.30;72.90;;;;;;5099837;28;20188;-59
2022/08/18 04:57:28;;;;;;;8.63;7.13;;;20.20;73.40;;;;;;5092481;28;20191;-59
2022/08/18 04:59:54;;;;;;;10.13;8.07;;;20.20;73.20;;;;;;5053462;28;20219;-60
2022/08/18 05:02:20;;;;;;;9.10;7.33;;;20.30;72.70;;;;;;5072280;28;20184;-59
2022/08/18 05:04:46;;;;;;;7.87;7.13;;;20.30;72.50;;;;;;5081401;28;20208;-60
2022/08/18 05:07:15;;;;;;;8.30;7.50;;;20.30;72.50;;;;;;5088208;28;20184;-60
2022/08/18 05:09:41;;;;;;;9.17;6.93;;;20.30;72.60;;;;;;5087479;28;20185;-60
2022/08/18 05:12:11;;;;;;;8.60;7.47;;;20.30;72.90;;;;;;5079754;28;20291;-60
2022/08/18 05:14:37;;;;;;;8.40;7.50;;;20.30;73.20;;;;;;5097701;28;20181;-60
2022/08/18 05:17:03;;;;;;;8.27;7.20;;;20.30;73.30;;;;;;5082664;28;20203;-59
2022/08/18 05:19:29;;;;;;;9.47;8.00;;;20.30;73.30;;;;;;5079597;28;20242;-59
2022/08/18 05:21:58;;;;;;;8.57;7.20;;;20.30;73.50;;;;;;5095173;28;20190;-59
2022/08/18 05:24:26;;;;;;;9.07;7.03;;;20.30;73.40;;;;;;5092281;28;20258;-59
2022/08/18 05:26:52;;;;;;;9.97;7.07;;;20.30;73.50;;;;;;5109142;28;20245;-59
2022/08/18 05:29:20;;;;;;;12.00;7.43;;;20.30;73.70;;;;;;5095237;28;20196;-59
2022/08/18 05:31:49;;;;;;;9.10;7.47;;;20.30;73.80;;;;;;5095297;28;20192;-59
2022/08/18 05:34:16;;;;;;;10.67;7.63;;;20.30;73.80;;;;;;5106140;28;20172;-59
2022/08/18 05:36:45;;;;;;;8.10;7.07;;;20.40;73.50;;;;;;5088276;28;20183;-59
2022/08/18 05:39:17;;;;;;;10.63;8.53;;;20.40;73.50;;;;;;5094376;28;20204;-59
2022/08/18 05:41:45;;;;;;;9.17;8.10;;;20.50;72.80;;;;;;5109365;28;20173;-59
2022/08/18 05:44:20;;;;;;;8.97;7.70;;;20.60;72.50;;;;;;5094947;28;20219;-59
2022/08/18 05:46:55;;;;;;;9.30;7.97;;;20.60;72.60;;;;;;5094449;28;20175;-59
2022/08/18 05:49:23;;;;;;;8.53;7.30;;;20.70;72.70;;;;;;5110085;28;20191;-59
2022/08/18 05:52:00;;;;;;;11.07;7.87;;;20.60;72.80;;;;;;5084410;28;20279;-59
2022/08/18 05:57:29;;;;;;;8.13;7.07;;;20.70;72.70;;;;;;5107366;28;20195;-59
2022/08/18 05:59:56;;;;;;;11.67;8.30;;;20.70;72.70;;;;;;5090104;28;20200;-58
2022/08/18 06:02:33;;;;;;;9.80;8.10;;;20.70;72.80;;;;;;5094314;28;20238;-59
2022/08/18 06:05:02;;;;;;;9.40;8.40;;;20.80;72.50;;;;;;5091508;28;20171;-59
2022/08/18 06:07:47;;;;;;;9.30;7.30;;;20.80;72.50;;;;;;5094564;28;20214;-61
2022/08/18 06:10:14;;;;;;;11.50;7.80;;;20.80;72.30;;;;;;5093648;28;20180;-60
2022/08/18 06:12:46;;;;;;;11.33;8.20;;;20.80;72.20;;;;;;5093797;28;20176;-60
2022/08/18 06:15:17;;;;;;;10.37;7.90;;;20.80;72.30;;;;;;5095884;28;20184;-60
2022/08/18 06:18:04;;;;;;;11.03;8.23;;;20.80;72.40;;;;;;5095734;28;20176;-60
2022/08/18 06:20:46;;;;;;;8.90;7.87;;;20.80;72.30;;;;;;5095777;28;20199;-62
2022/08/18 06:23:17;;;;;;;9.20;7.27;;;20.80;72.00;;;;;;5090907;28;20176;-61
2022/08/18 06:25:55;;;;;;;10.10;7.77;;;20.80;71.90;;;;;;5095085;28;20224;-61
2022/08/18 06:28:21;;;;;;;9.00;8.03;;;20.90;72.10;;;;;;5095095;28;20183;-61
2022/08/18 06:30:49;;;;;;;11.17;8.60;;;20.90;72.00;;;;;;5086572;28;20189;-61
2022/08/18 06:33:30;;;;;;;9.10;7.37;;;20.90;72.00;;;;;;5094018;28;20227;-61
2022/08/18 06:36:18;;;;;;;9.90;7.30;;;21.00;71.80;;;;;;5079943;28;20187;-61
2022/08/18 06:39:05;;;;;;;10.53;7.77;;;21.00;71.70;;;;;;5085558;28;20188;-61
2022/08/18 06:41:43;;;;;;;8.57;7.40;;;21.10;71.60;;;;;;5108171;28;20177;-61
2022/08/18 06:44:13;;;;;;;11.67;8.30;;;21.10;71.60;;;;;;5088157;28;20204;-62
2022/08/18 06:47:05;;;;;;;8.57;7.67;;;21.20;70.80;;;;;;5107333;28;20181;-60
2022/08/18 06:49:48;;;;;;;10.20;8.00;;;21.30;70.70;;;;;;5090214;28;20215;-60
2022/08/18 06:52:28;;;;;;;8.37;7.50;;;21.30;70.60;;;;;;5086111;28;20185;-60
2022/08/18 06:54:57;;;;;;;9.70;8.43;;;21.40;70.50;;;;;;5092186;28;20184;-59
2022/08/18 06:57:26;;;;;;;11.43;8.47;;;21.60;70.40;;;;;;5093319;28;20192;-60
2022/08/18 06:59:59;;;;;;;10.80;8.43;;;21.70;70.00;;;;;;5081810;28;20267;-60
2022/08/18 07:03:00;;;;;;;15.03;9.10;;;21.80;70.00;;;;;;5096109;28;20211;-60
2022/08/18 07:05:31;;;;;;;9.90;7.63;;;21.80;68.50;;;;;;5069520;28;20191;-60
2022/08/18 07:08:18;;;;;;;15.03;8.83;;;22.20;67.30;;;;;;5080849;28;20183;-61
2022/08/18 07:10:50;;;;;;;10.07;7.83;;;22.30;67.10;;;;;;5102396;28;20191;-60
2022/08/18 07:13:25;;;;;;;9.37;7.67;;;22.60;65.60;;;;;;5094997;28;20233;-60
2022/08/18 07:15:54;;;;;;;12.53;8.20;;;22.70;65.80;;;;;;5078092;28;20260;-60
2022/08/18 07:18:28;;;;;;;10.47;7.93;;;22.70;66.10;;;;;;5088390;28;20191;-60
2022/08/18 07:20:59;;;;;;;14.07;8.10;;;22.70;66.50;;;;;;5066305;28;20212;-60
2022/08/18 07:23:30;;;;;;;11.20;7.83;;;22.80;65.90;;;;;;5090962;28;20221;-60
2022/08/18 07:26:09;;;;;;;10.03;7.60;;;22.80;65.30;;;;;;5092959;28;20258;-59
2022/08/18 07:28:37;;;;;;;9.27;7.57;;;22.90;64.60;;;;;;5096667;28;20188;-59
2022/08/18 07:31:12;;;;;;;9.07;7.77;;;23.00;64.40;;;;;;5080171;28;20189;-61
2022/08/18 07:33:42;;;;;;;9.43;7.50;;;23.00;64.60;;;;;;5110631;28;20210;-61
2022/08/18 07:36:09;;;;;;;9.20;7.67;;;23.00;64.50;;;;;;5115492;28;20180;-60
2022/08/18 07:38:47;;;;;;;10.73;7.10;;;23.10;65.00;;;;;;5080301;28;20187;-60
2022/08/18 07:41:25;;;;;;;10.00;6.80;;;23.20;64.80;;;;;;5095275;28;20203;-60
2022/08/18 07:44:21;;;;;;;10.67;7.17;;;23.30;64.70;;;;;;5091964;28;20180;-59
2022/08/18 07:46:59;;;;;;;11.20;7.13;;;23.30;64.20;;;;;;5095356;28;20181;-59
2022/08/18 07:49:35;;;;;;;7.97;6.57;;;23.30;64.40;;;;;;5105107;28;20184;-59
2022/08/18 07:52:21;;;;;;;7.40;6.43;;;23.30;64.90;;;;;;5112884;28;20184;-59
2022/08/18 07:55:05;;;;;;;8.30;6.70;;;23.30;65.30;;;;;;5096688;28;20196;-59
2022/08/18 07:57:45;;;;;;;8.27;6.40;;;23.30;66.00;;;;;;5089394;28;20187;-59
2022/08/18 08:00:22;;;;;;;9.80;6.70;;;23.30;66.80;;;;;;5093528;28;20203;-62
2022/08/18 08:03:07;;;;;;;8.97;6.50;;;23.30;66.60;;;;;;5097242;28;20218;-60
2022/08/18 08:05:52;;;;;;;10.87;6.53;;;23.30;67.10;;;;;;5093894;28;20180;-60
2022/08/18 08:08:36;;;;;;;7.57;6.77;;;23.40;66.90;;;;;;5097790;28;20253;-62
2022/08/18 08:11:25;;;;;;;8.70;6.73;;;23.50;66.80;;;;;;5112599;28;20192;-60
2022/08/18 08:14:12;;;;;;;8.17;6.17;;;23.50;67.60;;;;;;5107455;28;20188;-60
2022/08/18 08:17:04;;;;;;;8.93;5.93;;;23.50;66.80;;;;;;5111433;28;20187;-60
2022/08/18 08:19:52;;;;;;;7.90;5.93;;;23.60;67.10;;;;;;5091253;28;20241;-60
2022/08/18 08:22:18;;;;;;;8.30;5.20;;;23.70;66.40;;;;;;5102109;28;20211;-61
2022/08/18 08:24:52;;;;;;;6.27;5.20;;;23.80;65.30;;;;;;5116450;28;20256;-60
2022/08/18 08:27:41;;;;;;;5.57;3.80;;;23.90;65.70;;;;;;5087538;28;20176;-59
2022/08/18 08:30:15;;;;;;;6.20;4.70;;;24.00;62.00;;;;;;5103326;28;20192;-60
2022/08/18 08:33:01;;;;;;;7.37;4.50;;;24.20;60.80;;;;;;5093046;28;20291;-60
2022/08/18 08:35:47;;;;;;;8.03;3.90;;;24.40;57.20;;;;;;5093301;28;20210;-61
2022/08/18 08:38:46;;;;;;;6.63;3.53;;;24.80;55.50;;;;;;5097340;28;20258;-60
2022/08/18 08:41:20;;;;;;;5.07;3.80;;;25.00;53.80;;;;;;5087983;28;20206;-60
2022/08/18 08:44:08;;;;;;;10.47;4.17;;;25.20;53.80;;;;;;5096860;28;20183;-60
2022/08/18 08:46:56;;;;;;;6.33;4.07;;;25.40;53.40;;;;;;5109554;28;20173;-60
2022/08/18 08:49:38;;;;;;;4.87;3.87;;;25.40;54.00;;;;;;5097029;28;20180;-60
2022/08/18 08:52:36;;;;;;;8.33;3.97;;;25.60;54.30;;;;;;5116015;28;20207;-60
2022/08/18 08:55:27;;;;;;;7.23;4.20;;;25.70;53.10;;;;;;5097334;28;20187;-60
2022/08/18 08:58:06;;;;;;;7.87;4.57;;;26.00;52.30;;;;;;5073273;28;20196;-60
2022/08/18 09:00:33;;;;;;;8.03;4.40;;;25.90;53.90;;;;;;5109981;28;20203;-60
2022/08/18 09:03:30;;;;;;;8.47;4.30;;;25.80;53.80;;;;;;5113759;28;20188;-60
2022/08/18 09:06:08;;;;;;;6.13;4.20;;;25.80;55.80;;;;;;5106829;28;20310;-60
2022/08/18 09:09:02;;;;;;;8.10;4.00;;;25.70;56.30;;;;;;5093088;28;20181;-60
2022/08/18 09:11:43;;;;;;;6.67;4.13;;;25.60;55.90;;;;;;5097000;28;20188;-60
2022/08/18 09:14:46;;;;;;;12.30;4.43;;;25.60;55.50;;;;;;5109393;28;20181;-60
2022/08/18 09:17:43;;;;;;;11.77;5.00;;;25.60;56.00;;;;;;5101849;27;20202;-60
2022/08/18 09:20:34;;;;;;;8.43;4.73;;;25.90;54.20;;;;;;5093586;28;20211;-60
2022/08/18 09:23:07;;;;;;;6.97;3.93;;;26.10;52.90;;;;;;5107674;28;20176;-60
2022/08/18 09:25:40;;;;;;;8.93;4.40;;;26.20;54.90;;;;;;5091116;28;20239;-60
2022/08/18 09:28:17;;;;;;;11.60;5.23;;;26.30;51.70;;;;;;5093477;28;20314;-61
2022/08/18 09:31:08;;;;;;;8.73;4.67;;;26.70;52.60;;;;;;5092660;28;20203;-61
2022/08/18 09:33:42;;;;;;;8.43;4.10;;;26.90;52.00;;;;;;5072659;28;20313;-60
2022/08/18 09:36:35;;;;;;;7.00;4.67;;;27.10;50.60;;;;;;5079619;28;20180;-61
2022/08/18 09:42:29;;;;;;;6.60;4.87;;;27.30;51.00;;;;;;5105577;28;20186;-61
2022/08/18 09:45:00;;;;;;;9.73;4.60;;;27.40;50.20;;;;;;5094350;28;20220;-61
2022/08/18 09:47:26;;;;;;;9.87;4.87;;;27.70;49.90;;;;;;5095611;28;20207;-60
2022/08/18 09:49:53;;;;;;;9.40;4.70;;;27.70;51.00;;;;;;5077891;28;20189;-61
2022/08/18 09:52:21;;;;;;;8.47;4.03;;;27.60;52.50;;;;;;5113952;28;20180;-61
2022/08/18 09:55:16;;;;;;;10.03;4.57;;;27.50;52.70;;;;;;5113409;28;20211;-61
2022/08/18 09:57:43;;;;;;;9.17;4.10;;;27.60;51.10;;;;;;5061259;28;20192;-61
2022/08/18 10:00:12;;;;;;;5.77;4.10;;;27.60;50.60;;;;;;5074072;28;20214;-61
2022/08/18 10:02:39;;;;;;;5.70;3.90;;;27.60;52.40;;;;;;5106170;28;20180;-60
2022/08/18 10:05:19;;;;;;;8.67;4.03;;;27.60;52.40;;;;;;5092188;28;20248;-61
2022/08/18 10:08:05;;;;;;;7.57;3.83;;;27.60;50.40;;;;;;5096250;28;20191;-60
2022/08/18 10:10:43;;;;;;;6.63;4.13;;;27.60;51.60;;;;;;5095716;28;20225;-61
2022/08/18 10:13:21;;;;;;;9.73;3.80;;;27.90;47.30;;;;;;5082123;28;20192;-61
2022/08/18 10:16:18;;;;;;;7.47;4.17;;;28.20;47.60;;;;;;5084688;28;20175;-60
2022/08/18 10:19:09;;;;;;;7.37;4.00;;;28.20;49.90;;;;;;5079871;28;20215;-59
2022/08/18 10:22:03;;;;;;;6.67;3.73;;;28.10;50.20;;;;;;5090231;28;20199;-59
2022/08/18 10:24:36;;;;;;;8.43;3.90;;;28.00;47.80;;;;;;5075515;28;20232;-60
2022/08/18 10:27:06;;;;;;;9.57;4.10;;;28.00;50.00;;;;;;5106746;28;20188;-60
2022/08/18 10:29:50;;;;;;;6.83;3.87;;;28.00;51.00;;;;;;5090263;28;20176;-59
2022/08/18 10:32:22;;;;;;;6.97;3.37;;;28.00;49.20;;;;;;5092906;28;20176;-60
2022/08/18 10:34:55;;;;;;;9.50;3.60;;;28.00;49.40;;;;;;5092418;28;20226;-60
2022/08/18 10:37:25;;;;;;;9.93;3.80;;;28.10;51.50;;;;;;5095898;28;20184;-61
2022/08/18 10:39:59;;;;;;;9.00;4.13;;;28.10;51.30;;;;;;5100291;28;20215;-60
2022/08/18 10:42:31;;;;;;;6.93;3.90;;;28.20;48.60;;;;;;5083105;28;20215;-60
2022/08/18 10:45:12;;;;;;;8.50;3.80;;;28.30;50.10;;;;;;5093947;28;20216;-61
2022/08/18 10:47:37;;;;;;;7.77;3.23;;;28.30;49.70;;;;;;5094885;28;20229;-61
2022/08/18 10:50:08;;;;;;;7.90;3.77;;;28.40;50.00;;;;;;5084353;28;20180;-61
2022/08/18 10:52:43;;;;;;;11.70;4.27;;;28.40;49.60;;;;;;5079032;28;20196;-61
2022/08/18 10:55:51;;;;;;;10.47;3.97;;;28.60;47.00;;;;;;5107726;28;20252;-61
2022/08/18 10:58:40;;;;;;;9.67;3.67;;;28.70;48.20;;;;;;5087878;28;20184;-61
2022/08/18 11:01:09;;;;;;;9.33;3.97;;;28.70;48.70;;;;;;5070212;28;20289;-61
2022/08/18 11:04:07;;;;;;;7.33;4.03;;;28.80;49.20;;;;;;5099538;28;20253;-61
2022/08/18 11:06:42;;;;;;;10.47;4.07;;;28.80;50.70;;;;;;5082513;28;20196;-57
2022/08/18 11:09:09;;;;;;;7.17;4.37;;;28.90;49.30;;;;;;5079904;28;20249;-59
2022/08/18 11:11:41;;;;;;;6.60;3.73;;;28.80;50.00;;;;;;5089403;28;20185;-59
2022/08/18 11:14:38;;;;;;;8.43;3.90;;;28.80;50.00;;;;;;5094568;28;20218;-60
2022/08/18 11:17:23;;;;;;;9.73;3.63;;;29.00;46.80;;;;;;5116543;28;20180;-60
2022/08/18 11:19:51;;;;;;;9.70;3.87;;;29.30;46.70;;;;;;5099262;28;20204;-60
2022/08/18 11:22:36;;;;;;;8.53;3.20;;;29.50;48.40;;;;;;5098272;28;20180;-59
2022/08/18 11:25:17;;;;;;;7.97;3.80;;;29.50;47.60;;;;;;5079279;28;20289;-59
2022/08/18 11:27:45;;;;;;;12.20;4.30;;;29.70;48.70;;;;;;5087699;28;20184;-59
2022/08/18 11:30:11;;;;;;;8.80;3.53;;;30.20;45.10;;;;;;5113413;28;20196;-59
2022/08/18 11:32:39;;;;;;;9.10;3.60;;;30.10;47.80;;;;;;5098642;28;20219;-59
2022/08/18 11:35:13;;;;;;;12.63;4.37;;;30.10;47.10;;;;;;5117565;28;20188;-60
2022/08/18 11:37:44;;;;;;;9.90;3.83;;;30.10;46.50;;;;;;5097491;28;20229;-59
2022/08/18 11:40:23;;;;;;;8.23;3.87;;;30.20;47.60;;;;;;5115851;28;20265;-59
2022/08/18 11:43:15;;;;;;;9.47;3.70;;;30.30;47.30;;;;;;5116689;28;20183;-59
2022/08/18 11:45:45;;;;;;;13.43;4.03;;;30.30;45.90;;;;;;5079719;28;20193;-60
2022/08/18 11:48:14;;;;;;;15.47;4.23;;;30.40;44.40;;;;;;5093689;28;20181;-60
2022/08/18 11:50:55;;;;;;;5.60;3.20;;;30.60;44.20;;;;;;5096333;28;20302;-59
2022/08/18 11:53:35;;;;;;;5.83;3.10;;;30.70;44.10;;;;;;5098249;28;20212;-60
2022/08/18 11:56:24;;;;;;;12.57;3.70;;;30.80;43.40;;;;;;5113188;28;20263;-60
2022/08/18 11:59:27;;;;;;;7.47;3.13;;;30.90;45.30;;;;;;5089953;28;20272;-60
2022/08/18 12:01:54;;;;;;;10.77;3.53;;;31.20;42.90;;;;;;5112738;28;20196;-60
2022/08/18 12:04:34;;;;;;;9.50;4.10;;;31.40;39.80;;;;;;5070899;28;20196;-60
2022/08/18 12:07:03;;;;;;;7.10;3.53;;;31.40;39.20;;;;;;5098198;28;20188;-60
2022/08/18 12:09:45;;;;;;;9.70;3.50;;;31.70;38.70;;;;;;5098514;28;20176;-60
2022/08/18 12:12:26;;;;;;;10.73;3.10;;;31.70;42.60;;;;;;5080653;28;20181;-60
2022/08/18 12:14:54;;;;;;;7.67;3.70;;;31.90;36.80;;;;;;5080551;28;20187;-60
2022/08/18 12:17:20;;;;;;;7.47;3.53;;;32.00;39.80;;;;;;5091378;28;20192;-60
2022/08/18 12:19:45;;;;;;;8.00;3.07;;;32.20;41.80;;;;;;5098591;28;20204;-60
2022/08/18 12:22:24;;;;;;;8.37;3.70;;;32.30;41.30;;;;;;5072659;28;20276;-59
2022/08/18 12:24:50;;;;;;;11.77;3.43;;;32.50;41.60;;;;;;5096721;28;20319;-59
2022/08/18 12:27:19;;;;;;;8.40;4.13;;;32.70;37.50;;;;;;5112064;28;20184;-57
2022/08/18 12:29:45;;;;;;;10.00;3.60;;;33.00;40.30;;;;;;5086803;28;20188;-57
2022/08/18 12:32:12;;;;;;;10.20;3.77;;;33.20;41.80;;;;;;5096906;28;20185;-58
2022/08/18 12:34:38;;;;;;;8.17;3.50;;;33.50;38.60;;;;;;5080738;28;20181;-57
2022/08/18 12:37:07;;;;;;;6.33;3.67;;;33.70;38.60;;;;;;5082159;28;20191;-58
2022/08/18 12:39:34;;;;;;;12.30;4.00;;;33.80;35.60;;;;;;5081164;28;20204;-58
2022/08/18 12:42:00;;;;;;;7.20;3.23;;;34.00;38.50;;;;;;5087879;28;20181;-58
2022/08/18 12:44:33;;;;;;;10.77;3.77;;;34.10;39.10;;;;;;5061144;28;20176;-58
2022/08/18 12:47:01;;;;;;;9.80;3.43;;;34.10;41.60;;;;;;5080483;28;20188;-58
2022/08/18 12:49:27;;;;;;;9.47;3.57;;;34.00;37.40;;;;;;5079813;28;20254;-58
2022/08/18 12:51:54;;;;;;;7.37;3.50;;;33.90;38.30;;;;;;5067797;28;20189;-58
2022/08/18 12:54:20;;;;;;;11.27;3.90;;;33.90;38.10;;;;;;5114752;28;20192;-58
2022/08/18 12:56:50;;;;;;;6.43;3.90;;;33.90;39.10;;;;;;5091411;28;20255;-58
2022/08/18 12:59:15;;;;;;;8.20;3.70;;;33.90;41.50;;;;;;5110338;28;20265;-58
2022/08/18 13:01:41;;;;;;;11.63;3.97;;;33.80;34.80;;;;;;5091729;28;20182;-58
2022/08/18 13:04:07;;;;;;;13.30;3.90;;;33.70;35.20;;;;;;5065605;28;20268;-56
2022/08/18 13:06:36;;;;;;;9.70;3.80;;;33.80;37.70;;;;;;5067174;28;20289;-57
2022/08/18 13:09:03;;;;;;;11.30;4.37;;;33.70;37.80;;;;;;5098304;27;20176;-57
2022/08/18 13:11:28;;;;;;;10.13;3.77;;;33.70;39.90;;;;;;5086484;28;20199;-57
2022/08/18 13:13:55;;;;;;;9.97;3.90;;;33.60;40.10;;;;;;5096847;28;20184;-57
2022/08/18 13:16:21;;;;;;;11.03;4.90;;;33.40;39.00;;;;;;5050880;28;20194;-56
2022/08/18 13:18:46;;;;;;;8.47;4.03;;;33.40;37.80;;;;;;5074908;28;20189;-57
2022/08/18 13:21:15;;;;;;;7.13;3.57;;;33.30;36.60;;;;;;5074846;28;20280;-56
2022/08/18 13:23:41;;;;;;;9.53;4.10;;;33.20;38.70;;;;;;5097360;28;20192;-57
2022/08/18 13:26:12;;;;;;;12.60;4.80;;;33.30;40.40;;;;;;5096610;28;20697;-57
2022/08/18 13:28:39;;;;;;;17.43;4.83;;;33.30;38.60;;;;;;5092847;28;20172;-57